Time;durP1;ratioP1;P1;durP2;ratioP2;P2;SDS_P1;SDS_P2;PMS_P1;PMS_P2;Temp;Humidity;BMP_temperature;BMP_pressure;BME280_temperature;BME280_humidity;BME280_pressure;Samples;Min_cycle;Max_cycle;Signal;HPM_P1;HPM_P2
2021/10/18 00:00:53;;;;;;;10.10;6.58;;;;;;;18.52;38.91;100320.68;1685534;84;20889;-69
2021/10/18 00:03:19;;;;;;;10.75;6.20;;;;;;;18.45;38.97;100320.31;1718743;83;21087;-67
2021/10/18 00:05:47;;;;;;;9.50;6.78;;;;;;;18.39;39.27;100319.12;1697800;83;21047;-67
2021/10/18 00:08:13;;;;;;;10.30;6.62;;;;;;;18.23;39.41;100316.16;1697743;83;20928;-68
2021/10/18 00:10:40;;;;;;;9.38;6.67;;;;;;;18.33;39.37;100316.08;1698586;84;21156;-66
2021/10/18 00:13:09;;;;;;;9.33;6.58;;;;;;;18.24;39.44;100323.03;1698353;83;20931;-71
2021/10/18 00:15:37;;;;;;;9.48;6.85;;;;;;;18.19;39.57;100324.78;1698335;83;21002;-66
2021/10/18 00:18:05;;;;;;;9.75;6.28;;;;;;;18.07;39.47;100322.64;1697312;83;20951;-67
2021/10/18 00:20:33;;;;;;;10.53;6.33;;;;;;;18.04;39.45;100325.77;1698410;83;21046;-67
2021/10/18 00:23:00;;;;;;;8.98;6.10;;;;;;;18.01;39.46;100323.06;1698813;84;21147;-69
2021/10/18 00:25:26;;;;;;;9.45;6.20;;;;;;;18.07;39.46;100325.28;1698374;84;21145;-67
2021/10/18 00:27:53;;;;;;;11.85;6.92;;;;;;;18.14;39.42;100318.85;1696693;83;21096;-68
2021/10/18 00:30:20;;;;;;;10.80;6.50;;;;;;;18.15;39.46;100320.48;1697180;83;21082;-68
2021/10/18 00:32:47;;;;;;;9.08;6.25;;;;;;;18.12;39.49;100324.09;1698060;83;20991;-67
2021/10/18 00:35:14;;;;;;;10.08;6.55;;;;;;;18.11;39.46;100328.57;1698726;83;21232;-69
2021/10/18 00:37:40;;;;;;;9.90;6.85;;;;;;;18.12;39.49;100327.53;1697116;83;21034;-67
2021/10/18 00:40:09;;;;;;;9.95;6.55;;;;;;;18.01;39.55;100329.66;1698740;83;22208;-67
2021/10/18 00:42:36;;;;;;;10.10;6.62;;;;;;;18.01;39.67;100325.70;1691739;83;20952;-68
2021/10/18 00:45:04;;;;;;;10.53;6.65;;;;;;;17.96;39.82;100324.28;1698472;83;21512;-68
2021/10/18 00:47:31;;;;;;;12.43;7.15;;;;;;;17.88;40.11;100327.23;1698462;84;21134;-68
2021/10/18 00:49:57;;;;;;;9.33;6.37;;;;;;;18.02;40.16;100327.81;1698261;84;21737;-69
2021/10/18 00:52:24;;;;;;;10.68;6.17;;;;;;;18.47;39.40;100316.91;1698149;83;20948;-68
2021/10/18 00:54:51;;;;;;;11.68;6.15;;;;;;;18.35;39.53;100317.98;1679247;84;20987;-68
2021/10/18 00:57:18;;;;;;;11.00;7.08;;;;;;;18.55;39.44;100318.90;1697764;84;21551;-69
2021/10/18 00:59:44;;;;;;;11.43;7.70;;;;;;;18.67;39.32;100321.78;1701822;83;21222;-68
2021/10/18 01:02:12;;;;;;;15.88;10.72;;;;;;;18.98;38.92;100319.77;1697659;83;21074;-69
2021/10/18 01:04:39;;;;;;;21.95;14.13;;;;;;;19.02;38.82;100318.25;1708542;83;20884;-69
2021/10/18 01:07:06;;;;;;;15.93;9.25;;;;;;;19.09;38.65;100314.95;1715686;83;21003;-69
2021/10/18 01:09:33;;;;;;;13.35;8.93;;;;;;;19.19;38.50;100317.75;1715741;82;20923;-69
2021/10/18 01:11:59;;;;;;;10.58;7.08;;;;;;;19.36;38.23;100323.06;1680724;85;21119;-69
2021/10/18 01:14:25;;;;;;;11.53;7.90;;;;;;;19.27;38.28;100319.72;1706229;83;21379;-69
2021/10/18 01:16:52;;;;;;;9.95;7.17;;;;;;;19.03;38.72;100321.17;1684967;84;21491;-69
2021/10/18 01:19:22;;;;;;;11.43;6.92;;;;;;;19.08;38.43;100329.17;1679670;82;21076;-69
2021/10/18 01:21:51;;;;;;;10.30;7.00;;;;;;;18.98;38.53;100317.12;1677264;83;21091;-69
2021/10/18 01:24:17;;;;;;;12.40;7.37;;;;;;;19.11;38.21;100324.75;1679369;83;21145;-69
2021/10/18 01:26:44;;;;;;;10.28;7.28;;;;;;;19.08;38.21;100319.13;1688341;82;21008;-69
2021/10/18 01:29:11;;;;;;;10.65;7.15;;;;;;;18.98;38.34;100326.38;1722670;83;21505;-69
2021/10/18 01:31:40;;;;;;;11.33;7.33;;;;;;;18.98;38.33;100326.86;1722321;83;21072;-67
2021/10/18 01:34:07;;;;;;;12.10;7.08;;;;;;;18.75;38.74;100322.48;1722855;83;21035;-69
2021/10/18 01:36:34;;;;;;;15.78;9.70;;;;;;;18.87;38.50;100322.73;1723376;83;21165;-69
2021/10/18 01:39:01;;;;;;;11.88;8.10;;;;;;;18.80;38.69;100322.07;1715560;83;20954;-69
2021/10/18 01:41:27;;;;;;;12.80;8.53;;;;;;;18.84;38.71;100322.41;1714445;82;21102;-69
2021/10/18 01:43:54;;;;;;;11.38;7.62;;;;;;;19.02;38.43;100328.02;1682683;85;21038;-69
2021/10/18 01:46:20;;;;;;;12.07;8.48;;;;;;;19.09;38.27;100329.48;1706462;83;21056;-69
2021/10/18 01:48:47;;;;;;;10.93;7.45;;;;;;;19.03;38.26;100330.42;1683100;85;21249;-69
2021/10/18 01:51:13;;;;;;;10.03;6.90;;;;;;;19.01;38.25;100332.48;1707608;83;21430;-69
2021/10/18 01:53:40;;;;;;;12.13;7.75;;;;;;;19.08;38.09;100328.37;1688002;83;21051;-68
2021/10/18 01:56:07;;;;;;;12.60;7.97;;;;;;;19.01;38.06;100331.69;1675901;84;20936;-69
2021/10/18 01:58:34;;;;;;;11.25;7.90;;;;;;;18.93;38.19;100332.34;1706900;83;21142;-69
2021/10/18 02:01:03;;;;;;;12.75;7.97;;;;;;;18.82;38.30;100333.70;1682671;85;21180;-69
2021/10/18 02:03:29;;;;;;;11.68;8.00;;;;;;;18.85;38.33;100334.56;1708191;83;21454;-68
2021/10/18 02:05:56;;;;;;;13.28;8.15;;;;;;;18.82;38.39;100335.83;1706721;83;20972;-68
2021/10/18 02:08:22;;;;;;;11.28;6.85;;;;;;;18.76;38.46;100335.98;1682207;85;21023;-68
2021/10/18 02:10:49;;;;;;;13.58;7.85;;;;;;;18.48;38.89;100337.50;1706875;82;21008;-69
2021/10/18 02:13:17;;;;;;;15.00;8.73;;;;;;;18.41;39.11;100342.10;1702531;83;22301;-69
2021/10/18 02:15:43;;;;;;;11.63;7.78;;;;;;;18.45;39.01;100344.06;1701337;84;21119;-68
2021/10/18 02:18:10;;;;;;;12.28;8.20;;;;;;;18.42;39.01;100340.56;1700859;83;21177;-68
2021/10/18 02:20:37;;;;;;;10.68;7.80;;;;;;;18.40;39.08;100345.78;1701709;84;20904;-68
2021/10/18 02:23:03;;;;;;;12.05;7.58;;;;;;;18.23;39.21;100353.09;1703641;82;21122;-68
2021/10/18 02:25:30;;;;;;;12.07;8.55;;;;;;;18.16;39.41;100351.09;1683214;84;21422;-68
2021/10/18 02:27:57;;;;;;;13.28;8.75;;;;;;;18.13;39.43;100351.55;1681573;85;20956;-68
2021/10/18 02:30:24;;;;;;;14.07;7.90;;;;;;;18.28;39.21;100348.96;1707254;83;21106;-68
2021/10/18 02:32:52;;;;;;;12.63;8.55;;;;;;;18.27;39.26;100343.41;1683095;85;20965;-69
2021/10/18 02:35:18;;;;;;;11.05;7.90;;;;;;;18.31;39.21;100351.95;1707270;82;21512;-68
2021/10/18 02:37:44;;;;;;;10.98;8.00;;;;;;;18.31;39.17;100345.87;1707422;83;21160;-69
2021/10/18 02:40:11;;;;;;;12.58;7.97;;;;;;;17.77;40.06;100349.13;1706189;82;21083;-69
2021/10/18 02:42:38;;;;;;;12.98;8.73;;;;;;;17.92;39.82;100348.19;1704532;83;21154;-68
2021/10/18 02:45:07;;;;;;;13.00;8.70;;;;;;;17.80;39.96;100346.83;1710658;83;21530;-69
2021/10/18 02:47:35;;;;;;;12.82;8.48;;;;;;;17.80;39.97;100349.98;1682283;84;21116;-68
2021/10/18 02:50:03;;;;;;;13.65;8.00;;;;;;;17.72;40.07;100346.63;1707069;83;21131;-68
2021/10/18 02:52:29;;;;;;;10.45;7.75;;;;;;;17.73;39.97;100347.45;1682182;83;21565;-68
2021/10/18 02:54:56;;;;;;;13.78;7.62;;;;;;;17.74;39.92;100339.30;1683073;85;21542;-68
2021/10/18 02:57:22;;;;;;;11.40;8.33;;;;;;;17.78;39.87;100352.87;1706804;83;21070;-68
2021/10/18 02:59:49;;;;;;;12.80;7.92;;;;;;;17.73;39.90;100352.20;1707015;83;21458;-68
2021/10/18 03:02:17;;;;;;;12.58;8.90;;;;;;;17.59;39.85;100348.69;1770800;80;21170;-70
2021/10/18 03:04:46;;;;;;;12.47;8.78;;;;;;;17.33;40.00;100348.56;1819058;77;20930;-70
2021/10/18 03:07:12;;;;;;;13.03;9.35;;;;;;;17.24;39.84;100354.16;1819456;78;21819;-70
2021/10/18 03:09:40;;;;;;;15.85;8.80;;;;;;;17.06;39.75;100356.04;1813956;78;21059;-70
2021/10/18 03:12:08;;;;;;;14.68;9.40;;;;;;;16.90;39.64;100354.31;1793984;77;21479;-70
2021/10/18 03:14:34;;;;;;;14.53;8.78;;;;;;;16.89;39.46;100354.00;1793366;77;21160;-70
2021/10/18 03:17:03;;;;;;;15.58;8.75;;;;;;;16.72;39.73;100352.47;1782057;77;21153;-70
2021/10/18 03:19:30;;;;;;;11.25;7.67;;;;;;;16.58;40.26;100360.22;1816785;78;21046;-70
2021/10/18 03:21:56;;;;;;;14.58;8.15;;;;;;;16.42;40.81;100356.86;1786432;79;21938;-70
2021/10/18 03:24:23;;;;;;;11.30;7.65;;;;;;;16.54;41.08;100361.68;1786507;80;20939;-69
2021/10/18 03:26:49;;;;;;;10.40;7.30;;;;;;;16.48;41.32;100362.58;1818422;78;21341;-70
2021/10/18 03:29:16;;;;;;;12.15;7.20;;;;;;;16.51;41.53;100360.80;1819172;78;21642;-70
2021/10/18 03:31:43;;;;;;;13.43;7.42;;;;;;;16.55;41.73;100356.70;1796581;77;21020;-70
2021/10/18 03:34:09;;;;;;;13.13;7.53;;;;;;;16.58;41.75;100359.42;1801647;78;21089;-70
2021/10/18 03:36:36;;;;;;;11.55;7.58;;;;;;;16.68;41.63;100357.88;1785740;80;21149;-70
2021/10/18 03:39:03;;;;;;;12.55;7.40;;;;;;;16.76;41.34;100353.66;1808520;77;21659;-69
2021/10/18 03:41:29;;;;;;;12.03;8.53;;;;;;;16.47;41.65;100355.69;1817990;77;20904;-69
2021/10/18 03:43:56;;;;;;;10.60;7.62;;;;;;;16.34;42.11;100361.10;1783225;78;21557;-68
2021/10/18 03:46:22;;;;;;;12.80;7.87;;;;;;;16.59;41.81;100353.92;1784253;78;21081;-69
2021/10/18 03:48:49;;;;;;;12.40;7.22;;;;;;;16.77;41.50;100350.00;1815419;77;21050;-68
2021/10/18 03:51:16;;;;;;;10.32;7.15;;;;;;;16.58;41.85;100348.38;1751431;81;22189;-70
2021/10/18 03:53:43;;;;;;;11.95;7.08;;;;;;;16.34;42.28;100347.95;1776111;80;21489;-69
2021/10/18 03:56:09;;;;;;;9.80;6.75;;;;;;;16.48;42.10;100344.95;1783753;79;21015;-69
2021/10/18 03:58:37;;;;;;;10.55;7.12;;;;;;;16.50;41.94;100344.73;1761893;79;21005;-69
2021/10/18 04:01:08;;;;;;;12.13;7.33;;;;;;;16.52;42.01;100350.59;1767140;79;21076;-68
2021/10/18 04:03:32;;;;;;;15.55;7.53;;;;;;;16.51;42.01;100345.81;1774083;79;21162;-71
2021/10/18 04:05:59;;;;;;;11.43;7.30;;;;;;;16.46;41.99;100356.72;1764942;79;20912;-69
2021/10/18 04:08:27;;;;;;;12.03;7.58;;;;;;;16.47;41.77;100355.69;1761354;80;20932;-68
2021/10/18 04:10:54;;;;;;;12.13;8.03;;;;;;;16.53;41.50;100354.82;1760669;81;20992;-69
2021/10/18 04:13:20;;;;;;;10.18;7.17;;;;;;;16.73;40.91;100354.58;1761560;81;22354;-70
2021/10/18 04:15:47;;;;;;;13.03;8.83;;;;;;;16.65;40.80;100355.69;1760665;81;21112;-68
2021/10/18 04:18:14;;;;;;;12.28;7.97;;;;;;;16.81;40.45;100360.09;1777225;79;22533;-66
2021/10/18 04:20:41;;;;;;;13.18;7.45;;;;;;;16.67;40.63;100356.80;1791287;79;20982;-69
2021/10/18 04:23:08;;;;;;;15.05;7.50;;;;;;;16.34;41.25;100367.67;1804897;79;20922;-70
2021/10/18 04:25:34;;;;;;;14.78;9.18;;;;;;;16.50;41.40;100363.95;1787269;79;21048;-70
2021/10/18 04:28:01;;;;;;;14.30;8.83;;;;;;;16.77;41.08;100367.62;1773631;80;21155;-67
2021/10/18 04:30:28;;;;;;;13.95;9.23;;;;;;;16.81;40.86;100370.62;1774157;80;21115;-66
2021/10/18 04:32:56;;;;;;;15.65;10.15;;;;;;;16.99;40.85;100370.59;1773555;80;21007;-69
2021/10/18 04:35:23;;;;;;;19.05;11.55;;;;;;;17.17;40.75;100372.41;1788367;79;21067;-70
2021/10/18 04:37:52;;;;;;;19.23;12.98;;;;;;;17.42;40.32;100378.31;1783577;78;21056;-68
2021/10/18 04:40:18;;;;;;;19.98;12.60;;;;;;;17.51;40.10;100384.88;1805752;79;21107;-69
2021/10/18 04:42:45;;;;;;;21.07;12.03;;;;;;;17.45;39.95;100387.61;1786194;78;21023;-69
2021/10/18 04:45:13;;;;;;;21.30;12.07;;;;;;;17.28;40.38;100382.18;1750872;81;21065;-71
2021/10/18 04:47:44;;;;;;;15.40;9.88;;;;;;;17.17;41.01;100382.42;1730581;82;20977;-68
2021/10/18 04:50:10;;;;;;;24.82;13.20;;;;;;;17.37;40.98;100392.68;1792640;79;21474;-70
2021/10/18 04:52:37;;;;;;;29.02;14.13;;;;;;;17.56;40.74;100395.27;1791141;78;22232;-70
2021/10/18 04:55:05;;;;;;;20.32;12.13;;;;;;;17.79;40.19;100396.66;1773871;80;20969;-69
2021/10/18 04:57:33;;;;;;;21.77;13.95;;;;;;;17.88;39.97;100398.44;1776701;79;21071;-70
2021/10/18 05:00:00;;;;;;;19.27;13.90;;;;;;;17.96;39.92;100399.45;1764412;79;21491;-69
2021/10/18 05:02:28;;;;;;;19.67;13.10;;;;;;;18.15;39.85;100401.47;1747482;81;21497;-70
2021/10/18 05:04:54;;;;;;;17.05;12.15;;;;;;;18.46;39.27;100405.58;1747983;80;21106;-70
2021/10/18 05:07:21;;;;;;;17.92;11.65;;;;;;;18.55;39.18;100401.53;1747143;81;20892;-70
2021/10/18 05:09:48;;;;;;;20.45;12.55;;;;;;;18.78;38.94;100405.20;1751538;80;20959;-69
2021/10/18 05:12:14;;;;;;;16.25;11.48;;;;;;;18.91;38.59;100399.67;1759234;81;20939;-71
2021/10/18 05:14:40;;;;;;;23.10;12.13;;;;;;;19.18;38.30;100407.32;1759355;81;20967;-70
2021/10/18 05:17:07;;;;;;;19.40;13.23;;;;;;;19.33;38.03;100412.09;1760383;79;21530;-70
2021/10/18 05:19:33;;;;;;;22.73;13.62;;;;;;;19.58;37.57;100413.03;1752300;81;21291;-71
2021/10/18 05:22:00;;;;;;;21.15;14.30;;;;;;;19.98;36.76;100412.14;1762598;80;21063;-70
2021/10/18 05:24:26;;;;;;;20.50;14.07;;;;;;;20.16;36.36;100413.22;1772463;80;22178;-73
2021/10/18 05:26:53;;;;;;;20.37;12.97;;;;;;;20.24;36.31;100415.97;1772561;80;21240;-72
2021/10/18 05:29:19;;;;;;;20.10;13.00;;;;;;;20.48;35.98;100411.27;1771602;80;21081;-71
2021/10/18 05:31:47;;;;;;;20.97;14.13;;;;;;;20.84;35.89;100418.39;1772410;80;21309;-69
2021/10/18 05:34:13;;;;;;;19.47;13.47;;;;;;;21.40;35.18;100415.02;1771884;80;21234;-72
2021/10/18 05:36:40;;;;;;;21.67;14.30;;;;;;;22.13;34.76;100414.05;1772329;80;21831;-70
2021/10/18 05:39:06;;;;;;;19.33;13.23;;;;;;;22.88;33.60;100416.55;1772441;80;21766;-70
2021/10/18 05:41:32;;;;;;;21.47;13.30;;;;;;;23.27;32.74;100415.11;1771917;80;21473;-74
2021/10/18 05:43:59;;;;;;;15.97;12.30;;;;;;;23.62;32.22;100416.21;1772275;80;22239;-70
2021/10/18 05:46:25;;;;;;;14.00;11.13;;;;;;;24.15;31.88;100416.73;1764702;80;21628;-75
2021/10/18 05:48:52;;;;;;;20.97;11.10;;;;;;;25.08;31.19;100415.89;1736121;81;21047;-74
2021/10/18 05:51:19;;;;;;;15.30;9.60;;;;;;;26.05;30.29;100418.68;1756858;81;20994;-74
2021/10/18 05:53:45;;;;;;;11.60;8.37;;;;;;;27.04;29.01;100414.61;1757084;80;22294;-74
2021/10/18 05:56:12;;;;;;;11.27;7.77;;;;;;;27.57;28.17;100418.40;1756367;81;21030;-69
2021/10/18 05:58:38;;;;;;;11.10;9.30;;;;;;;28.42;27.19;100409.17;1750434;81;21058;-74
2021/10/18 06:01:05;;;;;;;9.40;8.03;;;;;;;29.21;26.10;100410.20;1753376;80;20951;-72
2021/10/18 06:03:31;;;;;;;11.80;8.20;;;;;;;29.73;25.50;100410.56;1745837;81;21131;-73
2021/10/18 06:06:00;;;;;;;12.67;9.33;;;;;;;30.29;24.92;100411.02;1747482;82;21771;-74
2021/10/18 06:08:26;;;;;;;15.43;12.10;;;;;;;30.76;24.00;100410.77;1747152;82;20968;-75
2021/10/18 06:10:53;;;;;;;21.97;13.23;;;;;;;31.27;23.08;100412.44;1748350;82;21631;-76
2021/10/18 06:13:20;;;;;;;16.83;12.73;;;;;;;31.25;22.73;100414.12;1722108;81;21081;-70
2021/10/18 06:15:46;;;;;;;15.17;12.37;;;;;;;31.22;22.46;100416.09;1717527;83;21148;-73
2021/10/18 06:18:16;;;;;;;15.47;11.77;;;;;;;31.49;22.12;100416.33;1731004;81;21141;-71
2021/10/18 06:20:47;;;;;;;20.68;13.50;;;;;;;31.53;22.13;100413.79;1746096;82;21042;-77
2021/10/18 06:23:14;;;;;;;14.07;12.45;;;;;;;31.60;21.71;100416.00;1743225;81;20944;-72
2021/10/18 06:25:41;;;;;;;13.97;12.20;;;;;;;31.66;21.91;100420.88;1739901;81;21975;-71
2021/10/18 06:28:08;;;;;;;14.03;12.43;;;;;;;31.61;21.94;100421.06;1739343;82;22382;-75
2021/10/18 06:30:35;;;;;;;21.40;14.20;;;;;;;31.93;21.64;100420.28;1748013;80;22653;-71
2021/10/18 06:33:03;;;;;;;15.53;11.40;;;;;;;32.32;21.34;100423.79;1735821;81;21057;-74
2021/10/18 06:35:31;;;;;;;17.23;12.37;;;;;;;32.56;21.05;100419.94;1816868;78;21440;-73
2021/10/18 06:37:58;;;;;;;19.03;13.43;;;;;;;32.64;20.93;100413.69;1811919;77;21041;-74
2021/10/18 06:40:25;;;;;;;14.17;11.73;;;;;;;32.88;20.52;100416.30;1798607;78;21002;-70
2021/10/18 06:42:51;;;;;;;10.95;8.90;;;;;;;32.96;20.57;100414.16;1809933;78;21210;-75
2021/10/18 06:45:18;;;;;;;10.95;7.90;;;;;;;33.27;20.40;100422.39;1798537;78;20951;-76
2021/10/18 06:47:44;;;;;;;13.10;7.62;;;;;;;33.61;20.03;100418.59;1815439;78;21086;-67
2021/10/18 06:50:11;;;;;;;10.23;7.78;;;;;;;33.56;19.92;100419.56;1816728;78;22245;-73
2021/10/18 06:52:41;;;;;;;14.35;10.58;;;;;;;33.65;19.92;100421.63;1815870;78;21062;-72
2021/10/18 06:55:08;;;;;;;11.20;9.50;;;;;;;33.98;19.62;100424.89;1816135;78;21416;-73
2021/10/18 06:57:37;;;;;;;10.15;8.73;;;;;;;34.27;19.35;100424.43;1816964;78;20959;-75
2021/10/18 07:00:06;;;;;;;15.00;12.20;;;;;;;34.47;19.20;100429.48;1815559;78;20931;-74
2021/10/18 07:02:32;;;;;;;14.58;10.93;;;;;;;34.58;18.96;100424.64;1812140;78;22375;-72
2021/10/18 07:04:59;;;;;;;10.50;8.48;;;;;;;34.55;18.82;100433.48;1808343;78;20982;-72
2021/10/18 07:07:28;;;;;;;14.05;10.98;;;;;;;34.25;18.89;100426.70;1807843;79;21124;-74
2021/10/18 07:10:00;;;;;;;18.82;13.05;;;;;;;34.29;18.97;100425.68;1792962;78;21086;-70
2021/10/18 07:12:24;;;;;;;18.45;14.40;;;;;;;33.81;19.45;100422.34;1796322;79;20939;-73
2021/10/18 07:14:51;;;;;;;19.17;12.78;;;;;;;34.08;19.40;100425.77;1794214;78;21507;-69
2021/10/18 07:17:17;;;;;;;15.78;11.40;;;;;;;34.30;19.07;100418.34;1790012;78;22382;-74
2021/10/18 07:19:44;;;;;;;13.53;10.45;;;;;;;34.40;19.20;100413.84;1803998;77;21141;-71
2021/10/18 07:22:10;;;;;;;13.85;10.80;;;;;;;34.77;18.90;100411.08;1784503;78;21084;-74
2021/10/18 07:24:37;;;;;;;15.00;12.78;;;;;;;34.79;18.58;100408.83;1792194;78;21161;-69
2021/10/18 07:27:04;;;;;;;13.10;10.85;;;;;;;35.02;18.38;100413.97;1793492;78;20994;-71
2021/10/18 07:29:31;;;;;;;14.60;10.68;;;;;;;34.86;18.55;100404.41;1764695;79;21061;-71
2021/10/18 07:31:58;;;;;;;10.60;8.90;;;;;;;34.70;18.71;100410.86;1786361;78;21132;-69
2021/10/18 07:34:24;;;;;;;13.90;10.10;;;;;;;34.88;18.57;100406.76;1792819;78;21021;-71
2021/10/18 07:36:51;;;;;;;13.50;10.08;;;;;;;34.82;18.51;100410.28;1805839;77;20952;-73
2021/10/18 07:39:24;;;;;;;17.37;9.45;;;;;;;35.03;18.43;100409.34;1804766;77;20991;-72
2021/10/18 07:41:55;;;;;;;11.53;9.55;;;;;;;34.93;18.42;100407.89;1806636;77;20911;-69
2021/10/18 07:44:24;;;;;;;10.70;8.08;;;;;;;34.86;18.58;100406.33;1793287;77;21783;-70
2021/10/18 07:46:55;;;;;;;9.15;7.58;;;;;;;34.95;18.49;100403.47;1802756;77;21545;-69
2021/10/18 07:49:23;;;;;;;10.78;8.63;;;;;;;34.99;18.44;100397.05;1792286;78;21125;-70
2021/10/18 07:51:51;;;;;;;11.88;9.25;;;;;;;34.93;18.39;100390.82;1785836;79;20939;-70
2021/10/18 07:54:18;;;;;;;11.60;8.48;;;;;;;34.91;18.40;100403.37;1798747;79;21369;-70
2021/10/18 07:56:45;;;;;;;12.07;8.63;;;;;;;35.05;18.25;100397.03;1792428;77;21337;-68
2021/10/18 07:59:12;;;;;;;10.85;7.50;;;;;;;35.09;18.12;100399.27;1789195;78;22172;-69
2021/10/18 08:01:39;;;;;;;9.98;7.37;;;;;;;35.08;17.87;100393.64;1791698;79;21469;-69
2021/10/18 08:04:05;;;;;;;8.70;6.67;;;;;;;35.14;17.89;100392.81;1791981;78;21303;-69
2021/10/18 08:06:31;;;;;;;9.68;6.05;;;;;;;34.89;18.01;100389.94;1795867;78;21627;-69
2021/10/18 08:08:58;;;;;;;7.87;5.33;;;;;;;35.25;17.86;100382.27;1802318;78;21216;-69
2021/10/18 08:11:25;;;;;;;6.92;5.50;;;;;;;35.25;17.66;100383.63;1807155;78;21356;-69
2021/10/18 08:13:52;;;;;;;7.87;5.12;;;;;;;35.21;17.43;100383.52;1800491;78;21562;-69
2021/10/18 08:16:20;;;;;;;5.15;4.08;;;;;;;34.68;17.54;100388.20;1800289;78;22355;-68
2021/10/18 08:18:47;;;;;;;6.03;4.40;;;;;;;33.98;17.78;100386.17;1790682;78;21051;-69
2021/10/18 08:21:13;;;;;;;6.70;4.00;;;;;;;33.35;18.20;100390.44;1792039;78;21106;-68
2021/10/18 08:23:42;;;;;;;5.00;3.63;;;;;;;32.70;18.53;100387.31;1800717;78;21477;-70
2021/10/18 08:26:08;;;;;;;6.47;3.40;;;;;;;31.96;18.78;100394.03;1807825;77;21409;-68
2021/10/18 08:28:34;;;;;;;5.53;3.07;;;;;;;31.21;19.32;100395.64;1798873;78;21066;-68
2021/10/18 08:31:01;;;;;;;5.30;2.90;;;;;;;30.55;19.74;100403.02;1792356;77;20999;-68
2021/10/18 08:33:28;;;;;;;6.73;2.93;;;;;;;29.99;20.00;100395.12;1804329;78;21136;-67
2021/10/18 08:35:54;;;;;;;5.50;2.97;;;;;;;29.40;20.53;100397.94;1812687;77;21455;-69
2021/10/18 08:38:37;;;;;;;7.77;3.67;;;;;;;29.03;20.68;100392.36;1779284;77;21068;-68
2021/10/18 08:45:53;;;;;;;6.20;2.80;;;;;;;28.63;21.20;100388.09;1794302;78;21111;-69
2021/10/18 08:48:19;;;;;;;5.57;2.67;;;;;;;28.53;21.15;100391.00;1796877;78;20876;-69
2021/10/18 08:50:48;;;;;;;4.93;3.00;;;;;;;28.44;21.37;100387.41;1793406;78;20983;-70
2021/10/18 08:53:16;;;;;;;4.40;2.17;;;;;;;28.72;21.29;100380.14;1788625;78;21176;-69
2021/10/18 08:55:44;;;;;;;4.53;2.30;;;;;;;29.08;20.89;100374.79;1793012;78;20998;-69
2021/10/18 08:58:10;;;;;;;7.37;3.20;;;;;;;29.41;20.77;100370.53;1797069;78;21746;-68
2021/10/18 09:00:47;;;;;;;5.23;2.50;;;;;;;29.71;20.62;100360.94;1798022;78;20916;-69
2021/10/18 09:03:23;;;;;;;5.97;2.90;;;;;;;30.33;20.21;100357.39;1795798;78;21081;-69
2021/10/18 09:05:53;;;;;;;6.77;3.90;;;;;;;30.82;20.05;100362.95;1784161;78;21264;-69
2021/10/18 09:08:36;;;;;;;5.83;2.60;;;;;;;31.12;19.33;100363.89;1790779;78;20987;-69
2021/10/18 09:11:13;;;;;;;5.30;3.30;;;;;;;30.93;19.28;100357.49;1796170;78;21450;-70
2021/10/18 09:13:47;;;;;;;6.40;3.40;;;;;;;30.61;19.47;100357.38;1803055;78;20982;-69
2021/10/18 09:16:21;;;;;;;7.73;4.60;;;;;;;30.21;19.89;100360.13;1796736;78;20987;-70
2021/10/18 09:19:18;;;;;;;6.97;4.43;;;;;;;29.98;20.66;100355.92;1796607;78;21079;-70
2021/10/18 09:21:57;;;;;;;11.17;4.27;;;;;;;30.02;20.79;100355.54;1812590;78;21025;-70
2021/10/18 09:24:37;;;;;;;7.33;3.67;;;;;;;29.89;20.74;100364.48;1811243;77;21092;-68
2021/10/18 09:27:11;;;;;;;5.83;3.63;;;;;;;29.77;20.74;100366.41;1813879;77;21516;-70
2021/10/18 09:29:47;;;;;;;8.90;4.73;;;;;;;29.66;20.78;100365.87;1811014;78;20959;-69
2021/10/18 09:32:22;;;;;;;8.40;3.67;;;;;;;29.48;20.68;100364.97;1814263;77;20919;-68
2021/10/18 09:34:49;;;;;;;6.30;3.77;;;;;;;29.42;20.72;100362.71;1810296;78;20968;-71
2021/10/18 09:37:16;;;;;;;8.93;3.20;;;;;;;29.66;20.75;100359.71;1815992;77;21141;-71
2021/10/18 09:39:45;;;;;;;7.13;3.37;;;;;;;29.88;20.60;100361.56;1814270;77;21054;-72
2021/10/18 09:42:17;;;;;;;5.40;2.63;;;;;;;30.24;20.34;100356.83;1809786;77;20935;-70
2021/10/18 09:45:07;;;;;;;8.20;2.80;;;;;;;30.60;19.96;100342.88;1811730;77;21017;-69
2021/10/18 10:54:07;;;;;;;7.47;2.80;;;;;;;31.06;17.91;100311.87;1700897;82;20945;-69
2021/10/18 10:56:49;;;;;;;4.23;2.50;;;;;;;30.94;18.01;100312.52;1787155;78;21015;-68
2021/10/18 10:59:25;;;;;;;5.27;2.70;;;;;;;30.85;18.17;100308.50;1805148;78;21125;-69
2021/10/18 11:01:58;;;;;;;7.43;3.53;;;;;;;30.85;18.11;100308.50;1806588;78;20892;-70
2021/10/18 11:04:36;;;;;;;6.10;3.27;;;;;;;30.89;18.18;100308.66;1806269;78;21133;-71
2021/10/18 11:07:09;;;;;;;4.97;3.20;;;;;;;30.98;18.26;100312.11;1806820;78;20963;-69
2021/10/18 11:09:48;;;;;;;5.27;2.77;;;;;;;30.84;18.00;100307.45;1801989;79;21027;-69
2021/10/18 11:12:35;;;;;;;5.93;3.30;;;;;;;30.58;18.21;100299.38;1806232;77;21180;-69
2021/10/18 11:15:14;;;;;;;7.73;3.20;;;;;;;30.31;18.29;100298.56;1805548;79;21615;-69
2021/10/18 11:17:54;;;;;;;7.53;3.53;;;;;;;30.14;18.46;100298.48;1802855;77;21062;-69
2021/10/18 11:20:24;;;;;;;5.83;3.17;;;;;;;29.74;18.65;100300.66;1801076;78;22394;-69
2021/10/18 11:23:02;;;;;;;5.67;3.33;;;;;;;29.45;19.00;100308.39;1799779;78;20952;-69
2021/10/18 11:25:35;;;;;;;6.80;3.20;;;;;;;29.33;19.24;100295.53;1804713;78;21777;-68
2021/10/18 11:28:03;;;;;;;6.13;3.33;;;;;;;29.44;19.32;100300.10;1798132;78;21036;-69
2021/10/18 11:30:33;;;;;;;5.17;3.17;;;;;;;29.53;19.09;100298.23;1807833;78;20928;-69
2021/10/18 11:33:04;;;;;;;8.07;4.37;;;;;;;29.37;19.12;100303.77;1807080;77;20926;-69
2021/10/18 11:35:33;;;;;;;8.83;5.37;;;;;;;29.33;19.24;100304.38;1790744;78;22366;-69
2021/10/18 11:38:05;;;;;;;14.77;4.17;;;;;;;29.09;19.41;100303.90;1803547;78;21518;-69
2021/10/18 11:40:44;;;;;;;7.40;3.93;;;;;;;29.03;19.66;100299.77;1807184;78;20982;-69
2021/10/18 11:43:13;;;;;;;8.33;3.93;;;;;;;29.24;19.58;100299.49;1807419;77;21497;-70
2021/10/18 11:45:49;;;;;;;6.43;3.80;;;;;;;28.96;19.56;100307.42;1800788;79;20985;-67
2021/10/18 11:48:25;;;;;;;7.93;3.60;;;;;;;29.08;19.48;100291.59;1808111;77;20959;-71
2021/10/18 11:50:58;;;;;;;5.33;3.67;;;;;;;28.72;19.65;100303.14;1791196;77;22162;-68
2021/10/18 11:53:31;;;;;;;6.87;3.77;;;;;;;28.43;19.90;100305.40;1808060;78;21051;-68
2021/10/18 11:56:00;;;;;;;10.47;4.50;;;;;;;28.01;20.17;100297.38;1801826;78;20896;-69
2021/10/18 11:58:33;;;;;;;8.40;4.20;;;;;;;27.64;20.56;100303.67;1807488;79;21031;-69
2021/10/18 12:01:03;;;;;;;9.03;5.03;;;;;;;27.43;20.92;100309.13;1802499;77;21051;-68
2021/10/18 12:03:33;;;;;;;9.77;5.33;;;;;;;27.47;20.93;100304.25;1806842;77;21230;-69
2021/10/18 12:06:03;;;;;;;11.27;5.30;;;;;;;27.20;21.18;100308.17;1815522;78;20971;-69
2021/10/18 12:08:36;;;;;;;9.65;4.45;;;;;;;27.03;21.36;100307.34;1814840;78;21117;-69
2021/10/18 12:11:06;;;;;;;8.27;4.50;;;;;;;27.08;21.39;100304.03;1814430;78;20951;-68
2021/10/18 12:13:39;;;;;;;6.67;4.20;;;;;;;27.28;21.03;100305.64;1815224;78;21015;-69
2021/10/18 12:16:20;;;;;;;6.87;3.77;;;;;;;27.19;20.85;100312.73;1813276;77;21154;-68
2021/10/18 12:18:53;;;;;;;11.05;4.75;;;;;;;26.73;21.10;100316.08;1813943;78;21238;-68
2021/10/18 12:21:30;;;;;;;10.60;4.10;;;;;;;26.51;21.33;100318.52;1808580;78;21025;-68
2021/10/18 12:24:03;;;;;;;6.20;3.23;;;;;;;25.96;21.75;100317.00;1816075;77;20982;-69
2021/10/18 12:26:43;;;;;;;8.03;3.40;;;;;;;25.89;21.92;100322.43;1813490;77;21017;-68
2021/10/18 12:29:15;;;;;;;6.93;4.37;;;;;;;25.98;22.17;100319.92;1812156;78;21119;-68
2021/10/18 12:31:51;;;;;;;10.97;4.60;;;;;;;25.99;22.27;100310.83;1813085;77;20955;-69
2021/10/18 12:34:26;;;;;;;10.90;4.87;;;;;;;26.06;22.07;100313.41;1812972;77;21065;-69